sensor_id;sensor_type;location;lat;lon;timestamp;P1;durP1;ratioP1;P2;durP2;ratioP2
29534;SDS011;16475;52.650;8.116;2023-02-15T00:02:25;3.67;;;3.38;;
29534;SDS011;16475;52.650;8.116;2023-02-15T00:04:50;3.47;;;3.17;;
29534;SDS011;16475;52.650;8.116;2023-02-15T00:07:16;2.80;;;2.50;;
29534;SDS011;16475;52.650;8.116;2023-02-15T00:09:43;3.70;;;3.13;;
29534;SDS011;16475;52.650;8.116;2023-02-15T00:12:10;3.92;;;3.63;;
29534;SDS011;16475;52.650;8.116;2023-02-15T00:14:35;5.93;;;5.03;;
29534;SDS011;16475;52.650;8.116;2023-02-15T00:17:00;4.77;;;4.47;;
29534;SDS011;16475;52.650;8.116;2023-02-15T00:19:26;3.30;;;3.00;;
29534;SDS011;16475;52.650;8.116;2023-02-15T00:21:51;3.00;;;2.80;;
29534;SDS011;16475;52.650;8.116;2023-02-15T00:24:17;2.97;;;2.67;;
29534;SDS011;16475;52.650;8.116;2023-02-15T00:26:43;19.73;;;5.90;;
29534;SDS011;16475;52.650;8.116;2023-02-15T00:29:10;3.83;;;3.50;;
29534;SDS011;16475;52.650;8.116;2023-02-15T00:31:36;3.70;;;3.40;;
29534;SDS011;16475;52.650;8.116;2023-02-15T00:34:05;4.10;;;3.40;;
29534;SDS011;16475;52.650;8.116;2023-02-15T00:36:42;3.38;;;3.00;;
29534;SDS011;16475;52.650;8.116;2023-02-15T00:39:07;3.13;;;2.93;;
29534;SDS011;16475;52.650;8.116;2023-02-15T00:41:33;2.97;;;2.77;;
29534;SDS011;16475;52.650;8.116;2023-02-15T00:43:59;3.10;;;2.90;;
29534;SDS011;16475;52.650;8.116;2023-02-15T00:46:24;4.20;;;3.10;;
29534;SDS011;16475;52.650;8.116;2023-02-15T00:48:50;2.77;;;2.57;;
29534;SDS011;16475;52.650;8.116;2023-02-15T00:51:15;4.53;;;3.87;;
29534;SDS011;16475;52.650;8.116;2023-02-15T00:53:42;2.88;;;2.67;;
29534;SDS011;16475;52.650;8.116;2023-02-15T00:56:07;6.40;;;4.30;;
29534;SDS011;16475;52.650;8.116;2023-02-15T00:58:32;3.60;;;3.30;;
29534;SDS011;16475;52.650;8.116;2023-02-15T01:01:05;5.80;;;2.70;;
29534;SDS011;16475;52.650;8.116;2023-02-15T01:03:32;3.38;;;3.08;;
29534;SDS011;16475;52.650;8.116;2023-02-15T01:05:57;3.23;;;3.03;;
29534;SDS011;16475;52.650;8.116;2023-02-15T01:08:23;3.73;;;3.40;;
29534;SDS011;16475;52.650;8.116;2023-02-15T01:10:48;3.70;;;3.40;;
29534;SDS011;16475;52.650;8.116;2023-02-15T01:13:14;4.63;;;3.40;;
29534;SDS011;16475;52.650;8.116;2023-02-15T01:15:40;2.63;;;2.40;;
29534;SDS011;16475;52.650;8.116;2023-02-15T01:18:06;4.50;;;4.10;;
29534;SDS011;16475;52.650;8.116;2023-02-15T01:20:34;7.40;;;4.23;;
29534;SDS011;16475;52.650;8.116;2023-02-15T01:23:01;9.82;;;4.15;;
29534;SDS011;16475;52.650;8.116;2023-02-15T01:25:27;9.43;;;5.50;;
29534;SDS011;16475;52.650;8.116;2023-02-15T01:27:52;3.70;;;3.37;;
29534;SDS011;16475;52.650;8.116;2023-02-15T01:30:17;2.70;;;2.50;;
29534;SDS011;16475;52.650;8.116;2023-02-15T01:32:43;9.33;;;5.57;;
29534;SDS011;16475;52.650;8.116;2023-02-15T01:35:08;6.83;;;3.90;;
29534;SDS011;16475;52.650;8.116;2023-02-15T01:37:34;5.72;;;5.03;;
29534;SDS011;16475;52.650;8.116;2023-02-15T01:40:00;4.20;;;3.90;;
29534;SDS011;16475;52.650;8.116;2023-02-15T01:42:28;4.38;;;4.07;;
29534;SDS011;16475;52.650;8.116;2023-02-15T01:44:56;4.13;;;3.40;;
29534;SDS011;16475;52.650;8.116;2023-02-15T01:47:38;43.75;;;4.82;;
29534;SDS011;16475;52.650;8.116;2023-02-15T01:52:33;74.73;;;6.87;;
29534;SDS011;16475;52.650;8.116;2023-02-15T01:55:00;6.47;;;3.38;;
29534;SDS011;16475;52.650;8.116;2023-02-15T01:57:27;6.60;;;5.00;;
29534;SDS011;16475;52.650;8.116;2023-02-15T01:59:54;3.67;;;3.38;;
29534;SDS011;16475;52.650;8.116;2023-02-15T02:02:21;8.10;;;5.60;;
29534;SDS011;16475;52.650;8.116;2023-02-15T02:04:50;79.97;;;5.65;;
29534;SDS011;16475;52.650;8.116;2023-02-15T02:07:18;7.22;;;4.78;;
29534;SDS011;16475;52.650;8.116;2023-02-15T02:09:45;5.25;;;4.40;;
29534;SDS011;16475;52.650;8.116;2023-02-15T02:12:10;8.07;;;4.27;;
29534;SDS011;16475;52.650;8.116;2023-02-15T02:14:37;8.32;;;5.55;;
29534;SDS011;16475;52.650;8.116;2023-02-15T02:35:52;4.60;;;4.10;;
29534;SDS011;16475;52.650;8.116;2023-02-15T02:44:06;5.95;;;3.53;;
29534;SDS011;16475;52.650;8.116;2023-02-15T02:46:57;7.00;;;3.95;;
29534;SDS011;16475;52.650;8.116;2023-02-15T02:49:30;3.85;;;3.65;;
29534;SDS011;16475;52.650;8.116;2023-02-15T02:52:00;7.95;;;3.72;;
29534;SDS011;16475;52.650;8.116;2023-02-15T02:54:26;4.32;;;3.88;;
29534;SDS011;16475;52.650;8.116;2023-02-15T02:56:52;3.85;;;3.47;;
29534;SDS011;16475;52.650;8.116;2023-02-15T02:59:19;12.20;;;5.83;;
29534;SDS011;16475;52.650;8.116;2023-02-15T03:01:48;3.22;;;3.03;;
29534;SDS011;16475;52.650;8.116;2023-02-15T03:04:20;3.58;;;3.15;;
29534;SDS011;16475;52.650;8.116;2023-02-15T03:06:50;5.07;;;4.43;;
29534;SDS011;16475;52.650;8.116;2023-02-15T03:09:21;10.98;;;5.95;;
29534;SDS011;16475;52.650;8.116;2023-02-15T03:11:59;3.75;;;3.05;;
29534;SDS011;16475;52.650;8.116;2023-02-15T03:14:25;3.50;;;3.10;;
29534;SDS011;16475;52.650;8.116;2023-02-15T03:16:51;3.80;;;3.23;;
29534;SDS011;16475;52.650;8.116;2023-02-15T03:19:27;5.00;;;2.60;;
29534;SDS011;16475;52.650;8.116;2023-02-15T03:21:57;6.90;;;4.03;;
29534;SDS011;16475;52.650;8.116;2023-02-15T03:24:53;4.65;;;4.30;;
29534;SDS011;16475;52.650;8.116;2023-02-15T03:27:24;4.80;;;4.50;;
29534;SDS011;16475;52.650;8.116;2023-02-15T03:29:55;5.32;;;4.43;;
29534;SDS011;16475;52.650;8.116;2023-02-15T03:32:22;10.80;;;5.07;;
29534;SDS011;16475;52.650;8.116;2023-02-15T03:34:48;3.88;;;3.15;;
29534;SDS011;16475;52.650;8.116;2023-02-15T03:40:02;7.15;;;4.35;;
29534;SDS011;16475;52.650;8.116;2023-02-15T03:43:00;9.50;;;6.70;;
29534;SDS011;16475;52.650;8.116;2023-02-15T03:45:29;3.72;;;3.50;;
29534;SDS011;16475;52.650;8.116;2023-02-15T03:47:56;26.58;;;5.57;;
29534;SDS011;16475;52.650;8.116;2023-02-15T03:50:26;9.73;;;3.90;;
29534;SDS011;16475;52.650;8.116;2023-02-15T03:53:12;5.57;;;4.45;;
29534;SDS011;16475;52.650;8.116;2023-02-15T03:55:39;3.10;;;2.90;;
29534;SDS011;16475;52.650;8.116;2023-02-15T03:58:05;10.60;;;4.37;;
29534;SDS011;16475;52.650;8.116;2023-02-15T04:00:57;6.78;;;4.53;;
29534;SDS011;16475;52.650;8.116;2023-02-15T04:03:43;82.45;;;9.15;;
29534;SDS011;16475;52.650;8.116;2023-02-15T04:06:13;6.72;;;3.65;;
29534;SDS011;16475;52.650;8.116;2023-02-15T04:08:38;5.80;;;5.20;;
29534;SDS011;16475;52.650;8.116;2023-02-15T04:11:22;4.07;;;3.33;;
29534;SDS011;16475;52.650;8.116;2023-02-15T04:13:48;13.13;;;5.63;;
29534;SDS011;16475;52.650;8.116;2023-02-15T04:16:22;3.60;;;3.38;;
29534;SDS011;16475;52.650;8.116;2023-02-15T04:18:48;3.03;;;2.88;;
29534;SDS011;16475;52.650;8.116;2023-02-15T04:21:32;3.08;;;2.83;;
29534;SDS011;16475;52.650;8.116;2023-02-15T04:24:16;3.97;;;2.85;;
29534;SDS011;16475;52.650;8.116;2023-02-15T04:27:00;3.58;;;3.33;;
29534;SDS011;16475;52.650;8.116;2023-02-15T04:29:26;3.03;;;2.83;;
29534;SDS011;16475;52.650;8.116;2023-02-15T04:31:52;7.35;;;3.50;;
29534;SDS011;16475;52.650;8.116;2023-02-15T04:34:18;6.90;;;5.05;;
29534;SDS011;16475;52.650;8.116;2023-02-15T04:36:44;2.43;;;2.37;;
29534;SDS011;16475;52.650;8.116;2023-02-15T04:39:11;9.33;;;3.63;;
29534;SDS011;16475;52.650;8.116;2023-02-15T04:41:37;4.03;;;3.72;;
29534;SDS011;16475;52.650;8.116;2023-02-15T04:44:03;2.13;;;2.07;;
29534;SDS011;16475;52.650;8.116;2023-02-15T04:46:28;2.47;;;2.30;;
29534;SDS011;16475;52.650;8.116;2023-02-15T04:48:54;3.50;;;3.20;;
29534;SDS011;16475;52.650;8.116;2023-02-15T04:51:20;5.13;;;4.32;;
29534;SDS011;16475;52.650;8.116;2023-02-15T04:53:45;7.10;;;2.80;;
29534;SDS011;16475;52.650;8.116;2023-02-15T04:56:11;5.97;;;3.83;;
29534;SDS011;16475;52.650;8.116;2023-02-15T04:58:36;7.33;;;3.40;;
29534;SDS011;16475;52.650;8.116;2023-02-15T05:01:05;2.55;;;2.35;;
29534;SDS011;16475;52.650;8.116;2023-02-15T05:03:31;2.83;;;2.63;;
29534;SDS011;16475;52.650;8.116;2023-02-15T05:05:56;5.60;;;3.00;;
29534;SDS011;16475;52.650;8.116;2023-02-15T05:08:21;7.23;;;4.10;;
29534;SDS011;16475;52.650;8.116;2023-02-15T05:10:49;2.90;;;2.70;;
29534;SDS011;16475;52.650;8.116;2023-02-15T05:13:15;3.75;;;3.55;;
29534;SDS011;16475;52.650;8.116;2023-02-15T05:15:40;8.13;;;4.83;;
29534;SDS011;16475;52.650;8.116;2023-02-15T05:18:05;4.53;;;2.93;;
29534;SDS011;16475;52.650;8.116;2023-02-15T05:20:32;3.95;;;3.75;;
29534;SDS011;16475;52.650;8.116;2023-02-15T05:22:58;8.60;;;3.47;;
29534;SDS011;16475;52.650;8.116;2023-02-15T05:25:23;3.73;;;3.43;;
29534;SDS011;16475;52.650;8.116;2023-02-15T05:28:08;6.68;;;4.90;;
29534;SDS011;16475;52.650;8.116;2023-02-15T05:30:47;4.53;;;4.07;;
29534;SDS011;16475;52.650;8.116;2023-02-15T05:33:13;4.50;;;4.03;;
29534;SDS011;16475;52.650;8.116;2023-02-15T05:35:39;8.23;;;4.23;;
29534;SDS011;16475;52.650;8.116;2023-02-15T05:38:07;4.33;;;3.60;;
29534;SDS011;16475;52.650;8.116;2023-02-15T05:40:56;11.15;;;6.05;;
29534;SDS011;16475;52.650;8.116;2023-02-15T05:43:22;4.10;;;3.07;;
29534;SDS011;16475;52.650;8.116;2023-02-15T05:45:48;4.77;;;4.37;;
29534;SDS011;16475;52.650;8.116;2023-02-15T05:48:14;4.55;;;4.22;;
29534;SDS011;16475;52.650;8.116;2023-02-15T05:50:40;5.03;;;2.72;;
29534;SDS011;16475;52.650;8.116;2023-02-15T05:53:06;6.47;;;4.97;;
29534;SDS011;16475;52.650;8.116;2023-02-15T05:55:31;81.43;;;7.27;;
29534;SDS011;16475;52.650;8.116;2023-02-15T05:57:56;7.00;;;6.43;;
29534;SDS011;16475;52.650;8.116;2023-02-15T06:00:22;7.27;;;6.13;;
29534;SDS011;16475;52.650;8.116;2023-02-15T06:02:47;5.13;;;4.47;;
29534;SDS011;16475;52.650;8.116;2023-02-15T06:05:13;4.17;;;3.73;;
29534;SDS011;16475;52.650;8.116;2023-02-15T06:07:38;4.10;;;3.80;;
29534;SDS011;16475;52.650;8.116;2023-02-15T06:10:03;5.50;;;4.70;;
29534;SDS011;16475;52.650;8.116;2023-02-15T06:12:29;5.32;;;3.17;;
29534;SDS011;16475;52.650;8.116;2023-02-15T06:14:55;3.23;;;3.03;;
29534;SDS011;16475;52.650;8.116;2023-02-15T06:17:20;7.03;;;3.43;;
29534;SDS011;16475;52.650;8.116;2023-02-15T06:19:46;3.43;;;3.13;;
29534;SDS011;16475;52.650;8.116;2023-02-15T06:22:12;8.77;;;3.80;;
29534;SDS011;16475;52.650;8.116;2023-02-15T06:24:39;3.72;;;3.42;;
29534;SDS011;16475;52.650;8.116;2023-02-15T06:27:04;4.40;;;4.00;;
29534;SDS011;16475;52.650;8.116;2023-02-15T06:29:29;7.93;;;4.27;;
29534;SDS011;16475;52.650;8.116;2023-02-15T06:31:55;4.53;;;2.33;;
29534;SDS011;16475;52.650;8.116;2023-02-15T06:34:20;2.10;;;2.03;;
29534;SDS011;16475;52.650;8.116;2023-02-15T06:36:45;7.53;;;4.87;;
29534;SDS011;16475;52.650;8.116;2023-02-15T06:39:11;5.57;;;4.60;;
29534;SDS011;16475;52.650;8.116;2023-02-15T06:41:36;5.70;;;5.10;;
29534;SDS011;16475;52.650;8.116;2023-02-15T06:44:01;7.37;;;4.60;;
29534;SDS011;16475;52.650;8.116;2023-02-15T06:46:26;6.47;;;5.77;;
29534;SDS011;16475;52.650;8.116;2023-02-15T06:48:52;2.53;;;2.33;;
29534;SDS011;16475;52.650;8.116;2023-02-15T06:51:17;5.03;;;4.53;;
29534;SDS011;16475;52.650;8.116;2023-02-15T06:53:42;5.80;;;2.27;;
29534;SDS011;16475;52.650;8.116;2023-02-15T06:56:08;5.50;;;4.37;;
29534;SDS011;16475;52.650;8.116;2023-02-15T06:58:37;9.23;;;7.47;;
29534;SDS011;16475;52.650;8.116;2023-02-15T07:01:04;10.18;;;4.70;;
29534;SDS011;16475;52.650;8.116;2023-02-15T07:03:29;7.50;;;4.70;;
29534;SDS011;16475;52.650;8.116;2023-02-15T07:05:58;4.27;;;2.57;;
29534;SDS011;16475;52.650;8.116;2023-02-15T07:08:25;2.85;;;2.75;;
29534;SDS011;16475;52.650;8.116;2023-02-15T07:10:51;6.10;;;2.72;;
29534;SDS011;16475;52.650;8.116;2023-02-15T07:13:17;3.05;;;2.88;;
29534;SDS011;16475;52.650;8.116;2023-02-15T07:15:42;3.20;;;2.80;;
29534;SDS011;16475;52.650;8.116;2023-02-15T07:18:08;3.67;;;3.47;;
29534;SDS011;16475;52.650;8.116;2023-02-15T07:20:34;5.50;;;3.60;;
29534;SDS011;16475;52.650;8.116;2023-02-15T07:23:00;4.03;;;3.58;;
29534;SDS011;16475;52.650;8.116;2023-02-15T07:25:26;8.57;;;4.77;;
29534;SDS011;16475;52.650;8.116;2023-02-15T07:27:56;5.43;;;4.10;;
29534;SDS011;16475;52.650;8.116;2023-02-15T07:30:22;2.08;;;1.98;;
29534;SDS011;16475;52.650;8.116;2023-02-15T07:32:47;2.13;;;2.07;;
29534;SDS011;16475;52.650;8.116;2023-02-15T07:35:32;3.15;;;2.92;;
29534;SDS011;16475;52.650;8.116;2023-02-15T07:37:57;5.90;;;4.30;;
29534;SDS011;16475;52.650;8.116;2023-02-15T07:40:22;4.27;;;3.73;;
29534;SDS011;16475;52.650;8.116;2023-02-15T07:42:48;5.13;;;3.37;;
29534;SDS011;16475;52.650;8.116;2023-02-15T07:45:14;2.33;;;2.13;;
29534;SDS011;16475;52.650;8.116;2023-02-15T07:47:39;3.53;;;2.83;;
29534;SDS011;16475;52.650;8.116;2023-02-15T07:50:04;6.57;;;3.60;;
29534;SDS011;16475;52.650;8.116;2023-02-15T07:52:30;6.30;;;4.55;;
29534;SDS011;16475;52.650;8.116;2023-02-15T07:54:56;5.37;;;3.17;;
29534;SDS011;16475;52.650;8.116;2023-02-15T07:57:21;5.00;;;3.50;;
29534;SDS011;16475;52.650;8.116;2023-02-15T07:59:46;3.00;;;1.40;;
29534;SDS011;16475;52.650;8.116;2023-02-15T08:02:11;4.47;;;3.93;;
29534;SDS011;16475;52.650;8.116;2023-02-15T08:04:39;12.40;;;3.63;;
29534;SDS011;16475;52.650;8.116;2023-02-15T08:07:05;3.80;;;3.50;;
29534;SDS011;16475;52.650;8.116;2023-02-15T08:09:30;4.17;;;3.77;;
29534;SDS011;16475;52.650;8.116;2023-02-15T08:11:55;4.23;;;2.60;;
29534;SDS011;16475;52.650;8.116;2023-02-15T08:14:21;6.30;;;2.80;;
29534;SDS011;16475;52.650;8.116;2023-02-15T08:16:50;2.05;;;1.95;;
29534;SDS011;16475;52.650;8.116;2023-02-15T08:19:18;6.78;;;3.40;;
29534;SDS011;16475;52.650;8.116;2023-02-15T08:21:51;2.00;;;1.90;;
29534;SDS011;16475;52.650;8.116;2023-02-15T08:24:19;3.70;;;3.47;;
29534;SDS011;16475;52.650;8.116;2023-02-15T08:26:45;2.42;;;2.22;;
29534;SDS011;16475;52.650;8.116;2023-02-15T08:29:12;6.38;;;4.60;;
29534;SDS011;16475;52.650;8.116;2023-02-15T08:31:42;6.40;;;3.20;;
29534;SDS011;16475;52.650;8.116;2023-02-15T08:34:09;17.37;;;4.90;;
29534;SDS011;16475;52.650;8.116;2023-02-15T08:36:36;5.80;;;5.30;;
29534;SDS011;16475;52.650;8.116;2023-02-15T08:39:02;4.73;;;4.00;;
29534;SDS011;16475;52.650;8.116;2023-02-15T08:41:29;26.10;;;4.82;;
29534;SDS011;16475;52.650;8.116;2023-02-15T08:43:58;3.70;;;3.33;;
29534;SDS011;16475;52.650;8.116;2023-02-15T08:46:25;6.82;;;4.55;;
29534;SDS011;16475;52.650;8.116;2023-02-15T08:48:51;63.30;;;7.93;;
29534;SDS011;16475;52.650;8.116;2023-02-15T08:51:23;2.70;;;2.53;;
29534;SDS011;16475;52.650;8.116;2023-02-15T08:53:52;14.70;;;7.13;;
29534;SDS011;16475;52.650;8.116;2023-02-15T08:56:19;4.38;;;4.05;;
29534;SDS011;16475;52.650;8.116;2023-02-15T08:58:47;3.45;;;3.05;;
29534;SDS011;16475;52.650;8.116;2023-02-15T09:01:13;13.57;;;3.63;;
29534;SDS011;16475;52.650;8.116;2023-02-15T09:03:43;6.10;;;4.97;;
29534;SDS011;16475;52.650;8.116;2023-02-15T09:06:10;4.35;;;4.00;;
29534;SDS011;16475;52.650;8.116;2023-02-15T09:08:36;7.00;;;5.50;;
29534;SDS011;16475;52.650;8.116;2023-02-15T09:13:47;5.22;;;4.82;;
29534;SDS011;16475;52.650;8.116;2023-02-15T09:16:12;6.60;;;5.80;;
29534;SDS011;16475;52.650;8.116;2023-02-15T09:18:38;4.17;;;3.93;;
29534;SDS011;16475;52.650;8.116;2023-02-15T09:21:08;3.90;;;3.60;;
29534;SDS011;16475;52.650;8.116;2023-02-15T09:23:34;5.88;;;5.43;;
29534;SDS011;16475;52.650;8.116;2023-02-15T09:26:04;5.23;;;4.30;;
29534;SDS011;16475;52.650;8.116;2023-02-15T09:28:30;12.85;;;5.82;;
29534;SDS011;16475;52.650;8.116;2023-02-15T09:31:03;7.18;;;6.28;;
29534;SDS011;16475;52.650;8.116;2023-02-15T09:33:32;7.35;;;4.97;;
29534;SDS011;16475;52.650;8.116;2023-02-15T09:35:59;7.85;;;5.13;;
29534;SDS011;16475;52.650;8.116;2023-02-15T09:38:24;4.43;;;4.07;;
29534;SDS011;16475;52.650;8.116;2023-02-15T09:40:53;9.40;;;6.60;;
29534;SDS011;16475;52.650;8.116;2023-02-15T09:43:29;3.42;;;2.65;;
29534;SDS011;16475;52.650;8.116;2023-02-15T09:46:12;5.45;;;5.00;;
29534;SDS011;16475;52.650;8.116;2023-02-15T09:48:45;8.27;;;4.72;;
29534;SDS011;16475;52.650;8.116;2023-02-15T09:51:27;12.07;;;5.70;;
29534;SDS011;16475;52.650;8.116;2023-02-15T09:54:19;5.93;;;5.32;;
29534;SDS011;16475;52.650;8.116;2023-02-15T09:57:00;6.15;;;5.57;;
29534;SDS011;16475;52.650;8.116;2023-02-15T10:11:04;13.35;;;6.65;;
29534;SDS011;16475;52.650;8.116;2023-02-15T10:14:05;14.02;;;6.00;;
29534;SDS011;16475;52.650;8.116;2023-02-15T10:27:37;12.93;;;8.10;;
29534;SDS011;16475;52.650;8.116;2023-02-15T10:30:11;16.70;;;9.35;;
29534;SDS011;16475;52.650;8.116;2023-02-15T10:38:05;16.95;;;8.02;;
29534;SDS011;16475;52.650;8.116;2023-02-15T10:40:59;29.05;;;10.93;;
29534;SDS011;16475;52.650;8.116;2023-02-15T10:46:25;6.80;;;5.93;;
29534;SDS011;16475;52.650;8.116;2023-02-15T10:55:02;21.70;;;9.68;;
29534;SDS011;16475;52.650;8.116;2023-02-15T11:02:37;14.93;;;8.15;;
29534;SDS011;16475;52.650;8.116;2023-02-15T11:08:03;15.57;;;8.48;;
29534;SDS011;16475;52.650;8.116;2023-02-15T11:13:25;8.57;;;6.35;;
29534;SDS011;16475;52.650;8.116;2023-02-15T11:15:53;17.45;;;10.52;;
29534;SDS011;16475;52.650;8.116;2023-02-15T11:18:26;17.90;;;9.98;;
29534;SDS011;16475;52.650;8.116;2023-02-15T11:20:55;13.57;;;9.75;;
29534;SDS011;16475;52.650;8.116;2023-02-15T11:23:21;14.00;;;7.95;;
29534;SDS011;16475;52.650;8.116;2023-02-15T11:28:24;24.13;;;10.73;;
29534;SDS011;16475;52.650;8.116;2023-02-15T11:30:56;17.45;;;8.40;;
29534;SDS011;16475;52.650;8.116;2023-02-15T11:33:31;13.63;;;8.48;;
29534;SDS011;16475;52.650;8.116;2023-02-15T11:36:05;18.83;;;11.15;;
29534;SDS011;16475;52.650;8.116;2023-02-15T11:38:34;12.30;;;8.25;;
29534;SDS011;16475;52.650;8.116;2023-02-15T11:41:11;10.10;;;6.53;;
29534;SDS011;16475;52.650;8.116;2023-02-15T11:46:22;18.10;;;9.20;;
29534;SDS011;16475;52.650;8.116;2023-02-15T11:48:47;19.57;;;7.70;;
29534;SDS011;16475;52.650;8.116;2023-02-15T11:51:14;16.03;;;10.27;;
29534;SDS011;16475;52.650;8.116;2023-02-15T11:53:41;28.20;;;11.20;;
29534;SDS011;16475;52.650;8.116;2023-02-15T11:56:13;16.77;;;10.18;;
29534;SDS011;16475;52.650;8.116;2023-02-15T11:58:40;37.30;;;8.35;;
29534;SDS011;16475;52.650;8.116;2023-02-15T12:03:54;20.85;;;10.32;;
29534;SDS011;16475;52.650;8.116;2023-02-15T12:06:24;18.50;;;9.50;;
29534;SDS011;16475;52.650;8.116;2023-02-15T12:11:46;22.63;;;11.97;;
29534;SDS011;16475;52.650;8.116;2023-02-15T12:14:12;25.77;;;11.80;;
29534;SDS011;16475;52.650;8.116;2023-02-15T12:19:13;31.17;;;12.10;;
29534;SDS011;16475;52.650;8.116;2023-02-15T12:21:42;16.43;;;9.97;;
29534;SDS011;16475;52.650;8.116;2023-02-15T12:26:58;29.03;;;13.43;;
29534;SDS011;16475;52.650;8.116;2023-02-15T12:29:27;25.83;;;12.27;;
29534;SDS011;16475;52.650;8.116;2023-02-15T12:31:55;35.77;;;13.00;;
29534;SDS011;16475;52.650;8.116;2023-02-15T12:34:21;21.57;;;11.23;;
29534;SDS011;16475;52.650;8.116;2023-02-15T12:36:49;20.00;;;11.00;;
29534;SDS011;16475;52.650;8.116;2023-02-15T12:39:23;26.87;;;11.97;;
29534;SDS011;16475;52.650;8.116;2023-02-15T12:44:24;29.90;;;13.47;;
29534;SDS011;16475;52.650;8.116;2023-02-15T12:49:29;20.47;;;10.37;;
29534;SDS011;16475;52.650;8.116;2023-02-15T12:51:59;19.00;;;11.30;;
29534;SDS011;16475;52.650;8.116;2023-02-15T12:54:33;27.37;;;12.80;;
29534;SDS011;16475;52.650;8.116;2023-02-15T12:57:12;22.13;;;11.20;;
29534;SDS011;16475;52.650;8.116;2023-02-15T12:59:45;31.53;;;12.33;;
29534;SDS011;16475;52.650;8.116;2023-02-15T13:02:16;24.37;;;11.87;;
29534;SDS011;16475;52.650;8.116;2023-02-15T13:04:48;25.93;;;12.37;;
29534;SDS011;16475;52.650;8.116;2023-02-15T13:07:14;23.43;;;11.57;;
29534;SDS011;16475;52.650;8.116;2023-02-15T13:09:40;28.87;;;12.07;;
29534;SDS011;16475;52.650;8.116;2023-02-15T13:12:09;24.47;;;11.20;;
29534;SDS011;16475;52.650;8.116;2023-02-15T13:14:42;23.50;;;11.00;;
29534;SDS011;16475;52.650;8.116;2023-02-15T13:17:09;29.73;;;13.03;;
29534;SDS011;16475;52.650;8.116;2023-02-15T13:19:40;28.93;;;12.97;;
29534;SDS011;16475;52.650;8.116;2023-02-15T13:22:10;19.93;;;11.10;;
29534;SDS011;16475;52.650;8.116;2023-02-15T13:24:40;24.43;;;11.27;;
29534;SDS011;16475;52.650;8.116;2023-02-15T13:27:10;27.97;;;11.60;;
29534;SDS011;16475;52.650;8.116;2023-02-15T13:29:40;40.07;;;12.37;;
29534;SDS011;16475;52.650;8.116;2023-02-15T13:32:28;25.70;;;12.20;;
29534;SDS011;16475;52.650;8.116;2023-02-15T13:34:57;28.20;;;11.27;;
29534;SDS011;16475;52.650;8.116;2023-02-15T13:42:52;28.93;;;12.50;;
29534;SDS011;16475;52.650;8.116;2023-02-15T13:45:36;31.87;;;13.67;;
29534;SDS011;16475;52.650;8.116;2023-02-15T13:48:15;23.33;;;12.53;;
29534;SDS011;16475;52.650;8.116;2023-02-15T13:53:48;27.23;;;12.70;;
29534;SDS011;16475;52.650;8.116;2023-02-15T13:56:24;25.73;;;12.93;;
29534;SDS011;16475;52.650;8.116;2023-02-15T14:18:12;39.73;;;15.10;;
29534;SDS011;16475;52.650;8.116;2023-02-15T14:32:10;22.20;;;11.30;;
29534;SDS011;16475;52.650;8.116;2023-02-15T14:34:48;35.87;;;12.63;;
29534;SDS011;16475;52.650;8.116;2023-02-15T14:37:19;39.30;;;13.17;;
29534;SDS011;16475;52.650;8.116;2023-02-15T14:42:39;27.63;;;13.47;;
29534;SDS011;16475;52.650;8.116;2023-02-15T14:45:19;26.07;;;11.10;;
29534;SDS011;16475;52.650;8.116;2023-02-15T14:50:45;27.57;;;12.33;;
29534;SDS011;16475;52.650;8.116;2023-02-15T14:56:04;36.37;;;13.50;;
29534;SDS011;16475;52.650;8.116;2023-02-15T14:58:53;33.77;;;13.27;;
29534;SDS011;16475;52.650;8.116;2023-02-15T15:01:25;33.43;;;13.00;;
29534;SDS011;16475;52.650;8.116;2023-02-15T15:03:55;35.30;;;14.57;;
29534;SDS011;16475;52.650;8.116;2023-02-15T15:06:30;27.10;;;12.50;;
29534;SDS011;16475;52.650;8.116;2023-02-15T15:09:01;25.63;;;11.43;;
29534;SDS011;16475;52.650;8.116;2023-02-15T15:11:48;37.93;;;14.33;;
29534;SDS011;16475;52.650;8.116;2023-02-15T15:14:37;38.50;;;13.60;;
29534;SDS011;16475;52.650;8.116;2023-02-15T15:17:02;24.97;;;13.40;;
29534;SDS011;16475;52.650;8.116;2023-02-15T15:22:17;35.80;;;11.30;;
29534;SDS011;16475;52.650;8.116;2023-02-15T15:38:22;24.73;;;12.70;;
29534;SDS011;16475;52.650;8.116;2023-02-15T15:47:28;24.90;;;12.10;;
29534;SDS011;16475;52.650;8.116;2023-02-15T15:49:58;15.00;;;8.00;;
29534;SDS011;16475;52.650;8.116;2023-02-15T15:52:25;27.33;;;11.23;;
29534;SDS011;16475;52.650;8.116;2023-02-15T15:54:52;16.93;;;9.93;;
29534;SDS011;16475;52.650;8.116;2023-02-15T15:59:54;25.90;;;11.60;;
29534;SDS011;16475;52.650;8.116;2023-02-15T16:02:20;29.83;;;10.03;;
29534;SDS011;16475;52.650;8.116;2023-02-15T16:04:45;25.90;;;11.43;;
29534;SDS011;16475;52.650;8.116;2023-02-15T16:07:33;39.80;;;12.63;;
29534;SDS011;16475;52.650;8.116;2023-02-15T16:12:25;25.97;;;11.10;;
29534;SDS011;16475;52.650;8.116;2023-02-15T16:14:52;28.07;;;11.50;;
29534;SDS011;16475;52.650;8.116;2023-02-15T16:17:23;32.27;;;12.07;;
29534;SDS011;16475;52.650;8.116;2023-02-15T16:19:49;29.60;;;11.13;;
29534;SDS011;16475;52.650;8.116;2023-02-15T16:22:20;15.93;;;9.13;;
29534;SDS011;16475;52.650;8.116;2023-02-15T16:27:39;27.27;;;10.47;;
29534;SDS011;16475;52.650;8.116;2023-02-15T16:32:44;24.60;;;10.47;;
29534;SDS011;16475;52.650;8.116;2023-02-15T16:35:13;22.73;;;11.00;;
29534;SDS011;16475;52.650;8.116;2023-02-15T16:37:41;23.57;;;10.50;;
29534;SDS011;16475;52.650;8.116;2023-02-15T16:40:12;22.77;;;10.07;;
29534;SDS011;16475;52.650;8.116;2023-02-15T16:42:55;35.10;;;10.70;;
29534;SDS011;16475;52.650;8.116;2023-02-15T16:45:23;25.80;;;11.67;;
29534;SDS011;16475;52.650;8.116;2023-02-15T16:47:50;35.20;;;10.70;;
29534;SDS011;16475;52.650;8.116;2023-02-15T16:50:30;31.23;;;11.10;;
29534;SDS011;16475;52.650;8.116;2023-02-15T16:52:58;33.73;;;11.03;;
29534;SDS011;16475;52.650;8.116;2023-02-15T16:55:25;18.90;;;11.53;;
29534;SDS011;16475;52.650;8.116;2023-02-15T16:57:56;27.83;;;12.67;;
29534;SDS011;16475;52.650;8.116;2023-02-15T17:00:25;15.90;;;8.20;;
29534;SDS011;16475;52.650;8.116;2023-02-15T17:05:46;28.17;;;11.87;;
29534;SDS011;16475;52.650;8.116;2023-02-15T17:08:24;29.20;;;9.20;;
29534;SDS011;16475;52.650;8.116;2023-02-15T17:13:41;22.87;;;11.30;;
29534;SDS011;16475;52.650;8.116;2023-02-15T17:16:28;23.87;;;10.40;;
29534;SDS011;16475;52.650;8.116;2023-02-15T17:18:56;17.13;;;9.80;;
29534;SDS011;16475;52.650;8.116;2023-02-15T17:21:24;26.40;;;9.83;;
29534;SDS011;16475;52.650;8.116;2023-02-15T17:23:56;30.33;;;12.53;;
29534;SDS011;16475;52.650;8.116;2023-02-15T17:26:29;17.53;;;9.40;;
29534;SDS011;16475;52.650;8.116;2023-02-15T17:28:57;16.60;;;9.20;;
29534;SDS011;16475;52.650;8.116;2023-02-15T17:31:29;11.60;;;8.10;;
29534;SDS011;16475;52.650;8.116;2023-02-15T17:33:56;26.47;;;11.30;;
29534;SDS011;16475;52.650;8.116;2023-02-15T17:36:24;25.00;;;12.47;;
29534;SDS011;16475;52.650;8.116;2023-02-15T17:41:21;16.57;;;8.80;;
29534;SDS011;16475;52.650;8.116;2023-02-15T17:43:51;25.75;;;9.48;;
29534;SDS011;16475;52.650;8.116;2023-02-15T17:46:16;28.97;;;9.77;;
29534;SDS011;16475;52.650;8.116;2023-02-15T17:48:45;30.57;;;13.10;;
29534;SDS011;16475;52.650;8.116;2023-02-15T17:51:12;20.90;;;8.87;;
29534;SDS011;16475;52.650;8.116;2023-02-15T17:53:38;26.20;;;11.27;;
29534;SDS011;16475;52.650;8.116;2023-02-15T17:56:04;22.23;;;9.83;;
29534;SDS011;16475;52.650;8.116;2023-02-15T17:58:34;18.10;;;10.00;;
29534;SDS011;16475;52.650;8.116;2023-02-15T18:00:59;28.03;;;10.57;;
29534;SDS011;16475;52.650;8.116;2023-02-15T18:03:48;11.70;;;8.00;;